Time;durP1;ratioP1;P1;durP2;ratioP2;P2;SDS_P1;SDS_P2;PMS_P1;PMS_P2;Temp;Humidity;BMP_temperature;BMP_pressure;BME280_temperature;BME280_humidity;BME280_pressure;Samples;Min_cycle;Max_cycle;Signal;HPM_P1;HPM_P2
2022/04/06 00:00:09;;;;;;;10.07;5.38;;;9.30;99.90;;;;;;5036815;28;20033;-60
2022/04/06 00:02:39;;;;;;;9.32;5.97;;;9.30;99.90;;;;;;5035009;28;20098;-60
2022/04/06 00:05:09;;;;;;;9.93;6.80;;;9.30;99.90;;;;;;5033081;28;20489;-60
2022/04/06 00:07:35;;;;;;;10.00;6.40;;;9.30;99.90;;;;;;5038040;28;20034;-60
2022/04/06 00:10:01;;;;;;;231.85;159.30;;;9.30;99.90;;;;;;5035197;28;20510;-60
2022/04/06 00:12:27;;;;;;;55.72;38.92;;;9.40;99.90;;;;;;5036827;28;20931;-60
2022/04/06 00:14:53;;;;;;;27.00;18.58;;;9.40;99.90;;;;;;5036550;28;20119;-60
2022/04/06 00:17:18;;;;;;;13.70;8.48;;;9.50;99.90;;;;;;5032523;28;20072;-60
2022/04/06 00:19:44;;;;;;;12.77;7.82;;;9.60;99.90;;;;;;5037137;28;20423;-60
2022/04/06 00:22:10;;;;;;;11.23;7.43;;;9.90;99.90;;;;;;5037207;28;20513;-60
2022/04/06 00:24:36;;;;;;;15.40;8.02;;;9.90;99.90;;;;;;5036259;28;20067;-60
2022/04/06 00:27:01;;;;;;;12.60;7.63;;;9.80;99.90;;;;;;5036740;28;20466;-61
2022/04/06 00:29:27;;;;;;;14.82;8.50;;;9.90;99.90;;;;;;5032230;28;20029;-61
2022/04/06 00:31:53;;;;;;;10.63;7.20;;;9.80;99.90;;;;;;5035222;28;20029;-61
2022/04/06 00:34:18;;;;;;;10.48;7.13;;;9.90;99.90;;;;;;5037509;28;20553;-60
2022/04/06 00:36:44;;;;;;;9.98;6.05;;;9.90;99.90;;;;;;5036285;28;20441;-60
2022/04/06 00:39:12;;;;;;;9.95;6.47;;;10.00;99.90;;;;;;5036197;28;20064;-60
2022/04/06 00:41:39;;;;;;;7.95;5.65;;;10.00;99.90;;;;;;5034816;28;20086;-61
2022/04/06 00:44:16;;;;;;;8.93;5.82;;;9.90;99.90;;;;;;5032158;28;20056;-61
2022/04/06 00:46:43;;;;;;;18.20;11.20;;;9.60;99.90;;;;;;5045491;28;20494;-60
2022/04/06 00:49:13;;;;;;;12.32;7.28;;;9.60;99.90;;;;;;5034675;28;20021;-60
2022/04/06 00:51:47;;;;;;;29.13;20.02;;;9.50;99.90;;;;;;5036162;28;20041;-60
2022/04/06 00:54:20;;;;;;;7.35;4.93;;;9.50;99.90;;;;;;5035862;28;20079;-61
2022/04/06 00:56:46;;;;;;;6.20;4.47;;;9.40;99.90;;;;;;5035597;28;20045;-61
2022/04/06 00:59:14;;;;;;;7.53;4.85;;;9.50;99.90;;;;;;5031121;28;20029;-60
2022/04/06 01:01:40;;;;;;;9.10;4.90;;;9.60;99.90;;;;;;5044969;28;20017;-60
2022/04/06 01:04:06;;;;;;;7.57;4.47;;;9.60;99.90;;;;;;5035979;28;20026;-60
2022/04/06 01:06:32;;;;;;;6.05;4.13;;;9.60;99.90;;;;;;5034335;28;20148;-60
2022/04/06 01:08:58;;;;;;;9.65;4.40;;;9.60;99.90;;;;;;5035986;28;20018;-60
2022/04/06 01:11:24;;;;;;;10.10;4.78;;;9.60;99.90;;;;;;5032211;28;20034;-60
2022/04/06 01:13:51;;;;;;;6.97;4.15;;;9.70;99.90;;;;;;5035095;28;20014;-60
2022/04/06 01:16:17;;;;;;;7.70;4.18;;;9.70;99.90;;;;;;5036439;28;20121;-60
2022/04/06 01:18:43;;;;;;;5.78;4.22;;;9.70;99.90;;;;;;5035263;28;20104;-60
2022/04/06 01:21:11;;;;;;;6.82;3.95;;;9.60;99.90;;;;;;5035228;28;20495;-60
2022/04/06 01:23:39;;;;;;;7.72;4.03;;;9.80;99.90;;;;;;5032617;28;20024;-61
2022/04/06 01:26:05;;;;;;;7.47;4.35;;;9.90;99.90;;;;;;5031513;28;20406;-60
2022/04/06 01:28:31;;;;;;;5.85;3.97;;;9.80;99.90;;;;;;5035673;28;20040;-60
2022/04/06 01:30:56;;;;;;;6.88;4.00;;;9.80;99.90;;;;;;5035571;28;20041;-60
2022/04/06 01:33:22;;;;;;;7.22;4.03;;;9.80;99.90;;;;;;5034993;28;20036;-60
2022/04/06 01:35:49;;;;;;;5.60;4.13;;;9.70;99.90;;;;;;5034857;28;20040;-60
2022/04/06 01:38:15;;;;;;;5.20;4.00;;;9.80;99.90;;;;;;5031240;28;20041;-60
2022/04/06 01:40:40;;;;;;;7.35;3.60;;;9.80;99.90;;;;;;5036864;28;20025;-61
2022/04/06 01:43:06;;;;;;;7.40;4.00;;;10.00;99.90;;;;;;5034570;28;20080;-61
2022/04/06 01:45:32;;;;;;;5.60;3.60;;;10.00;99.90;;;;;;5034863;28;20414;-60
2022/04/06 01:47:58;;;;;;;7.47;3.88;;;10.00;99.90;;;;;;5034850;28;20033;-60
2022/04/06 01:53:08;;;;;;;6.40;3.92;;;9.90;99.90;;;;;;5031564;28;20084;-61
2022/04/06 01:55:34;;;;;;;6.72;3.85;;;9.90;99.90;;;;;;5036455;28;20033;-60
2022/04/06 01:58:00;;;;;;;5.95;3.38;;;9.90;99.90;;;;;;5034252;28;20033;-60
2022/04/06 02:00:26;;;;;;;5.07;3.33;;;9.90;99.90;;;;;;5034590;28;20036;-61
2022/04/06 02:02:53;;;;;;;7.65;3.42;;;10.00;99.90;;;;;;5033191;28;20485;-60
2022/04/06 02:05:20;;;;;;;7.72;3.78;;;9.80;99.90;;;;;;5029049;28;20136;-60
2022/04/06 02:07:47;;;;;;;6.78;3.72;;;9.90;99.90;;;;;;5035587;28;20509;-61
2022/04/06 02:10:13;;;;;;;5.85;3.58;;;9.90;99.90;;;;;;5033560;28;20053;-61
2022/04/06 02:12:40;;;;;;;6.18;3.30;;;9.80;99.90;;;;;;5033983;28;20029;-60
2022/04/06 02:15:10;;;;;;;7.38;3.40;;;9.70;99.90;;;;;;5034441;28;20398;-60
2022/04/06 02:17:37;;;;;;;6.57;3.63;;;9.80;99.90;;;;;;5033390;28;20091;-60
2022/04/06 02:20:03;;;;;;;5.90;3.40;;;9.90;99.90;;;;;;5031212;28;20022;-60
2022/04/06 02:22:29;;;;;;;6.22;3.53;;;9.80;99.90;;;;;;5036215;28;20119;-60
2022/04/06 02:24:55;;;;;;;7.70;3.60;;;9.70;99.90;;;;;;5033996;28;20077;-60
2022/04/06 02:27:20;;;;;;;8.55;3.30;;;9.70;99.90;;;;;;5034245;28;20029;-60
2022/04/06 02:29:46;;;;;;;5.47;3.20;;;9.70;99.90;;;;;;5034177;28;20021;-62
2022/04/06 02:32:12;;;;;;;7.45;2.90;;;9.70;99.90;;;;;;5029749;28;20037;-60
2022/04/06 02:34:39;;;;;;;5.25;2.90;;;9.80;99.90;;;;;;5036255;28;20029;-61
2022/04/06 02:37:08;;;;;;;5.70;3.20;;;9.80;99.90;;;;;;5034112;28;20034;-61
2022/04/06 02:39:34;;;;;;;7.10;3.00;;;9.70;99.90;;;;;;5033935;28;20017;-60
2022/04/06 02:42:00;;;;;;;6.55;3.20;;;9.90;99.90;;;;;;5032456;28;20029;-61
2022/04/06 02:44:25;;;;;;;5.60;3.15;;;10.00;99.90;;;;;;5029741;28;20369;-61
2022/04/06 02:46:51;;;;;;;6.57;3.13;;;9.90;99.90;;;;;;5033818;28;20030;-60
2022/04/06 02:49:18;;;;;;;7.78;3.33;;;9.90;99.90;;;;;;5034990;28;20091;-60
2022/04/06 02:51:44;;;;;;;8.07;3.35;;;9.90;99.90;;;;;;5034367;28;20022;-60
2022/04/06 02:54:10;;;;;;;7.95;3.00;;;9.80;99.90;;;;;;5033897;28;20087;-60
2022/04/06 02:56:35;;;;;;;5.93;3.25;;;9.80;99.90;;;;;;5030654;28;20047;-61
2022/04/06 02:59:02;;;;;;;6.05;3.03;;;9.80;99.90;;;;;;5031242;28;20044;-61
2022/04/06 03:01:28;;;;;;;7.47;4.13;;;9.80;99.90;;;;;;5036227;28;20041;-60
2022/04/06 03:03:54;;;;;;;7.07;4.05;;;9.80;99.90;;;;;;5033881;28;20018;-60
2022/04/06 03:06:20;;;;;;;5.18;2.70;;;9.80;99.90;;;;;;5033925;28;20095;-60
2022/04/06 03:08:46;;;;;;;4.72;2.80;;;9.80;99.90;;;;;;5034014;28;20017;-60
2022/04/06 03:11:12;;;;;;;4.22;2.85;;;9.80;99.90;;;;;;5029306;28;20036;-61
2022/04/06 03:13:38;;;;;;;8.65;3.63;;;9.80;99.90;;;;;;5035903;28;20109;-60
2022/04/06 03:16:05;;;;;;;7.82;3.55;;;9.80;99.90;;;;;;5032797;28;20513;-61
2022/04/06 03:18:31;;;;;;;10.10;3.42;;;9.70;99.90;;;;;;5034626;28;20022;-60
2022/04/06 03:20:56;;;;;;;5.38;3.20;;;9.60;99.90;;;;;;5036265;28;20024;-61
2022/04/06 03:23:22;;;;;;;8.73;3.55;;;9.70;99.90;;;;;;5032698;28;20045;-60
2022/04/06 03:25:48;;;;;;;7.05;4.05;;;9.70;99.90;;;;;;5037602;28;20105;-61
2022/04/06 03:28:14;;;;;;;4.88;3.70;;;9.60;99.90;;;;;;5038172;28;20025;-60
2022/04/06 03:30:40;;;;;;;10.40;4.13;;;9.70;99.90;;;;;;5037458;28;20025;-61
2022/04/06 03:33:08;;;;;;;8.35;3.70;;;9.70;99.90;;;;;;5037226;28;20032;-60
2022/04/06 03:35:35;;;;;;;10.27;4.30;;;9.70;99.90;;;;;;5035359;28;20137;-61
2022/04/06 03:38:01;;;;;;;8.23;4.50;;;9.70;99.90;;;;;;5034668;28;20025;-61
2022/04/06 03:40:28;;;;;;;7.78;3.70;;;9.70;99.90;;;;;;5038784;28;20083;-61
2022/04/06 03:42:55;;;;;;;7.95;4.20;;;9.70;99.90;;;;;;5037621;28;20413;-61
2022/04/06 03:45:21;;;;;;;7.53;3.70;;;9.80;99.90;;;;;;5037234;28;20035;-60
2022/04/06 03:47:47;;;;;;;10.77;4.50;;;9.80;99.90;;;;;;5037166;28;20032;-61
2022/04/06 03:50:13;;;;;;;7.90;3.70;;;9.80;99.90;;;;;;5033031;28;20030;-61
2022/04/06 03:52:39;;;;;;;10.90;7.97;;;9.70;99.90;;;;;;5038640;28;20040;-61
2022/04/06 03:55:07;;;;;;;9.93;5.60;;;9.70;99.90;;;;;;5037430;28;20033;-60
2022/04/06 03:57:33;;;;;;;8.73;3.78;;;9.70;99.90;;;;;;5036798;28;20132;-61
2022/04/06 03:59:59;;;;;;;8.23;4.72;;;9.70;99.90;;;;;;5035673;28;20071;-61
2022/04/06 04:02:25;;;;;;;13.40;4.63;;;9.70;99.90;;;;;;5032887;28;20030;-61
2022/04/06 04:04:51;;;;;;;20.42;4.72;;;9.60;99.90;;;;;;5036533;28;20029;-60
2022/04/06 04:07:21;;;;;;;9.75;4.80;;;9.60;99.90;;;;;;5037388;28;20031;-60
2022/04/06 04:09:48;;;;;;;13.98;5.57;;;9.60;99.90;;;;;;5036772;28;20025;-61
2022/04/06 04:12:14;;;;;;;12.00;6.03;;;9.50;99.90;;;;;;5036464;28;20045;-60
2022/04/06 04:14:40;;;;;;;12.27;5.63;;;9.50;99.90;;;;;;5036270;28;20017;-60
2022/04/06 04:17:06;;;;;;;15.82;6.20;;;9.50;99.90;;;;;;5032870;28;20421;-60
2022/04/06 04:19:32;;;;;;;12.85;5.63;;;9.60;99.90;;;;;;5038301;28;20040;-60
2022/04/06 04:21:58;;;;;;;14.48;6.68;;;9.60;99.90;;;;;;5036084;28;20029;-60
2022/04/06 04:24:24;;;;;;;15.95;6.68;;;9.50;99.90;;;;;;5036460;28;20102;-60
2022/04/06 04:26:49;;;;;;;9.35;5.28;;;9.50;99.90;;;;;;5035409;28;20025;-60
2022/04/06 04:29:15;;;;;;;12.82;6.20;;;9.60;99.90;;;;;;5031896;28;20487;-61
2022/04/06 04:31:41;;;;;;;10.43;6.28;;;9.60;99.90;;;;;;5038333;28;20029;-61
2022/04/06 04:34:07;;;;;;;12.35;6.80;;;9.60;99.90;;;;;;5036004;28;20120;-60
2022/04/06 04:36:33;;;;;;;9.82;5.50;;;9.70;99.90;;;;;;5035602;28;20525;-61
2022/04/06 04:38:58;;;;;;;12.07;5.80;;;9.70;99.90;;;;;;5035230;28;20033;-60
2022/04/06 04:41:25;;;;;;;13.10;6.90;;;9.80;99.90;;;;;;5031275;28;20030;-61
2022/04/06 04:43:50;;;;;;;12.45;5.82;;;9.70;99.90;;;;;;5036086;28;20035;-60
2022/04/06 04:46:20;;;;;;;9.07;5.72;;;9.70;99.90;;;;;;5036862;28;20438;-61
2022/04/06 04:48:46;;;;;;;9.00;5.60;;;9.90;99.90;;;;;;5035764;28;20034;-61
2022/04/06 04:51:13;;;;;;;8.15;5.32;;;9.90;99.90;;;;;;5035550;28;20080;-61
2022/04/06 04:53:39;;;;;;;9.30;6.28;;;9.90;99.90;;;;;;5035344;28;20075;-61
2022/04/06 04:56:05;;;;;;;9.63;6.28;;;9.80;99.90;;;;;;5031981;28;20383;-61
2022/04/06 04:58:31;;;;;;;11.30;6.45;;;9.70;99.90;;;;;;5038324;28;20084;-63
2022/04/06 05:00:56;;;;;;;10.45;6.55;;;9.70;99.90;;;;;;5035898;28;20029;-60
2022/04/06 05:03:22;;;;;;;8.80;5.90;;;9.70;99.90;;;;;;5035810;28;20037;-61
2022/04/06 05:05:53;;;;;;;11.05;7.20;;;9.80;99.90;;;;;;5035405;28;20025;-61
2022/04/06 05:08:22;;;;;;;7.57;6.18;;;9.90;99.90;;;;;;5031903;28;20501;-60
2022/04/06 05:10:48;;;;;;;9.77;7.25;;;9.80;99.90;;;;;;5035680;28;20025;-60
2022/04/06 05:13:17;;;;;;;8.07;7.00;;;9.80;99.90;;;;;;5036095;28;20030;-60
2022/04/06 05:15:43;;;;;;;10.05;6.70;;;9.70;99.90;;;;;;5034023;28;20040;-60
2022/04/06 05:18:09;;;;;;;10.38;6.95;;;10.00;99.90;;;;;;5034503;28;20036;-61
2022/04/06 05:20:35;;;;;;;9.90;6.03;;;9.90;99.90;;;;;;5032078;28;20037;-60
2022/04/06 05:23:00;;;;;;;9.95;6.40;;;9.90;99.90;;;;;;5032416;28;20104;-60
2022/04/06 05:25:26;;;;;;;9.70;7.32;;;9.80;99.90;;;;;;5037178;28;20501;-60
2022/04/06 05:27:54;;;;;;;9.68;6.60;;;9.70;99.90;;;;;;5035217;28;20083;-60
2022/04/06 05:30:23;;;;;;;10.07;6.43;;;9.80;99.90;;;;;;5035677;28;20068;-60
2022/04/06 05:32:50;;;;;;;9.35;6.30;;;9.80;99.90;;;;;;5035012;28;20448;-60
2022/04/06 05:35:17;;;;;;;9.85;6.10;;;10.00;99.90;;;;;;5030647;28;20034;-60
2022/04/06 05:37:44;;;;;;;7.65;5.80;;;9.90;99.90;;;;;;5036794;28;20101;-60
2022/04/06 05:40:12;;;;;;;7.97;5.65;;;10.00;99.90;;;;;;5035313;28;20036;-60
2022/04/06 05:42:38;;;;;;;9.63;5.03;;;10.00;99.90;;;;;;5034926;28;20514;-60
2022/04/06 05:45:06;;;;;;;8.35;5.10;;;10.10;99.90;;;;;;5035037;28;20082;-60
2022/04/06 05:47:33;;;;;;;8.18;5.28;;;10.30;99.90;;;;;;5033443;28;20029;-60
2022/04/06 05:49:59;;;;;;;9.98;6.75;;;10.10;99.90;;;;;;5032215;28;20022;-60
2022/04/06 05:52:24;;;;;;;10.88;7.30;;;10.00;99.90;;;;;;5036713;28;20033;-60
2022/04/06 05:54:51;;;;;;;9.95;7.25;;;10.00;99.90;;;;;;5035285;28;20026;-60
2022/04/06 05:57:17;;;;;;;12.10;8.57;;;10.00;99.90;;;;;;5033248;28;20410;-61
2022/04/06 05:59:44;;;;;;;9.93;7.28;;;10.00;99.90;;;;;;5032844;28;20033;-60
2022/04/06 06:02:10;;;;;;;10.18;7.45;;;10.10;99.90;;;;;;5030323;28;20486;-60
2022/04/06 06:04:38;;;;;;;10.35;8.00;;;10.00;99.90;;;;;;5036652;28;20093;-60
2022/04/06 06:07:05;;;;;;;9.93;7.82;;;9.90;99.90;;;;;;5034517;28;20478;-61
2022/04/06 06:09:31;;;;;;;11.07;8.85;;;9.90;99.90;;;;;;5034493;28;20038;-61
2022/04/06 06:11:57;;;;;;;13.70;8.95;;;10.00;99.90;;;;;;5034765;28;20469;-60
2022/04/06 06:14:23;;;;;;;11.18;7.45;;;9.90;99.90;;;;;;5031279;28;20037;-61
2022/04/06 06:16:49;;;;;;;10.00;8.20;;;10.00;99.90;;;;;;5034350;28;20072;-62
2022/04/06 06:19:15;;;;;;;9.20;7.43;;;10.10;99.90;;;;;;5034759;28;20052;-61
2022/04/06 06:21:41;;;;;;;13.85;9.05;;;10.20;99.90;;;;;;5032709;28;20037;-59
2022/04/06 06:24:07;;;;;;;9.77;6.95;;;10.20;99.90;;;;;;5034352;28;20033;-60
2022/04/06 06:26:34;;;;;;;10.07;7.05;;;10.20;99.90;;;;;;5032950;28;20083;-59
2022/04/06 06:29:00;;;;;;;7.68;6.45;;;10.20;99.90;;;;;;5031581;28;20041;-60
2022/04/06 06:31:27;;;;;;;7.82;6.43;;;10.30;99.90;;;;;;5036184;28;20021;-60
2022/04/06 06:33:59;;;;;;;10.45;7.18;;;10.40;99.90;;;;;;5033774;28;20033;-60
2022/04/06 06:36:25;;;;;;;8.38;6.93;;;10.40;99.90;;;;;;5032448;28;20095;-60
2022/04/06 06:38:52;;;;;;;8.68;7.60;;;10.40;99.90;;;;;;5033111;28;20041;-60
2022/04/06 06:41:19;;;;;;;9.65;7.32;;;10.40;99.90;;;;;;5030363;28;20461;-59
2022/04/06 06:43:48;;;;;;;10.68;7.80;;;10.40;99.90;;;;;;5035732;28;20446;-59
2022/04/06 06:46:14;;;;;;;8.98;6.78;;;10.40;99.90;;;;;;5033100;28;20033;-60
2022/04/06 06:48:40;;;;;;;6.53;5.90;;;10.40;99.90;;;;;;5033579;28;20021;-60
2022/04/06 06:51:06;;;;;;;7.03;6.32;;;10.50;99.90;;;;;;5033769;28;20048;-60
2022/04/06 06:53:32;;;;;;;6.38;5.72;;;10.50;99.90;;;;;;5034532;28;20057;-60
2022/04/06 06:55:57;;;;;;;7.88;7.18;;;10.50;99.90;;;;;;5034595;28;20044;-60
2022/04/06 06:58:23;;;;;;;5.90;5.40;;;10.60;99.90;;;;;;5039590;28;20017;-60
2022/04/06 07:00:49;;;;;;;5.30;4.90;;;10.60;99.90;;;;;;5038484;28;20029;-60
2022/04/06 07:03:15;;;;;;;4.85;4.40;;;10.70;99.90;;;;;;5037693;28;20492;-60
2022/04/06 07:05:40;;;;;;;4.68;4.28;;;10.70;99.90;;;;;;5036875;28;20035;-60
2022/04/06 07:08:06;;;;;;;6.55;6.00;;;10.60;99.90;;;;;;5034551;28;20036;-60
2022/04/06 07:10:32;;;;;;;6.32;5.72;;;10.70;99.90;;;;;;5039708;28;20025;-60
2022/04/06 07:12:58;;;;;;;4.97;4.57;;;10.70;99.90;;;;;;5037703;28;20104;-60
2022/04/06 07:15:25;;;;;;;4.90;4.45;;;10.60;99.90;;;;;;5036195;28;20021;-60
2022/04/06 07:17:58;;;;;;;5.05;3.90;;;10.60;99.90;;;;;;5035809;28;20124;-60
2022/04/06 07:20:26;;;;;;;5.05;4.03;;;10.70;99.90;;;;;;5035074;28;20367;-60
2022/04/06 07:22:52;;;;;;;4.47;4.07;;;10.70;99.90;;;;;;5037166;28;20477;-60
2022/04/06 07:25:18;;;;;;;6.65;5.95;;;10.80;99.90;;;;;;5038483;28;20537;-60
2022/04/06 07:27:44;;;;;;;6.22;5.72;;;10.80;99.90;;;;;;5037863;28;20034;-60
2022/04/06 07:30:12;;;;;;;6.38;5.78;;;10.90;99.90;;;;;;5037346;28;20013;-60
2022/04/06 07:32:37;;;;;;;5.90;5.40;;;11.00;99.90;;;;;;5036123;28;20025;-60
2022/04/06 07:35:05;;;;;;;4.30;4.00;;;10.90;99.90;;;;;;5034516;28;20133;-60
2022/04/06 07:37:38;;;;;;;5.88;5.38;;;11.10;99.90;;;;;;5039327;28;20045;-60
2022/04/06 07:40:05;;;;;;;8.50;7.78;;;11.10;99.90;;;;;;5037410;28;20022;-61
2022/04/06 07:42:31;;;;;;;5.68;5.18;;;11.20;99.90;;;;;;5037075;28;20030;-60
2022/04/06 07:44:57;;;;;;;3.90;3.60;;;11.20;99.90;;;;;;5037317;28;20025;-60
2022/04/06 07:47:30;;;;;;;3.30;3.10;;;11.20;99.90;;;;;;5033833;28;20026;-60
2022/04/06 07:49:57;;;;;;;3.38;3.08;;;11.10;99.90;;;;;;5035874;28;20482;-60
2022/04/06 07:52:24;;;;;;;3.45;3.15;;;11.20;99.90;;;;;;5039192;28;20045;-60
2022/04/06 07:54:50;;;;;;;2.65;2.45;;;11.30;99.90;;;;;;5035825;28;20053;-60
2022/04/06 07:57:16;;;;;;;2.40;2.30;;;11.30;99.90;;;;;;5035444;28;20084;-60
2022/04/06 07:59:41;;;;;;;3.05;2.33;;;11.30;99.90;;;;;;5036006;28;20413;-61
2022/04/06 08:02:07;;;;;;;2.58;2.38;;;11.40;99.90;;;;;;5049857;28;20060;-61
2022/04/06 08:04:33;;;;;;;3.30;2.63;;;11.40;99.90;;;;;;5038193;28;20386;-61
2022/04/06 08:06:58;;;;;;;26.65;23.98;;;11.40;99.90;;;;;;5037082;28;20063;-61
2022/04/06 08:09:24;;;;;;;33.15;29.85;;;11.40;99.90;;;;;;5036803;28;20399;-60
2022/04/06 08:11:50;;;;;;;12.75;11.60;;;11.40;99.90;;;;;;5036957;28;20059;-60
2022/04/06 08:14:16;;;;;;;6.22;5.68;;;11.50;99.90;;;;;;5032342;28;20018;-60
2022/04/06 08:16:42;;;;;;;29.27;26.27;;;11.60;99.90;;;;;;5038479;28;20041;-60
2022/04/06 08:19:07;;;;;;;53.70;48.17;;;11.50;99.90;;;;;;5036507;28;20029;-60
2022/04/06 08:21:33;;;;;;;34.38;29.17;;;11.80;99.90;;;;;;5036877;28;20112;-60
2022/04/06 08:23:59;;;;;;;64.95;55.47;;;11.80;99.90;;;;;;5036447;28;20017;-60
2022/04/06 08:26:25;;;;;;;48.05;40.45;;;11.70;99.90;;;;;;5033192;28;20540;-60
2022/04/06 08:28:51;;;;;;;97.72;76.15;;;11.70;99.90;;;;;;5036290;28;20032;-60
2022/04/06 08:31:17;;;;;;;59.63;46.30;;;11.70;99.90;;;;;;5037058;28;20115;-60
2022/04/06 08:33:42;;;;;;;138.20;103.88;;;11.70;99.90;;;;;;5035024;28;20498;-60
2022/04/06 08:36:09;;;;;;;55.50;41.45;;;11.70;99.90;;;;;;5034446;28;20053;-60
2022/04/06 08:38:34;;;;;;;24.60;18.50;;;11.90;99.90;;;;;;5034868;28;20454;-60
2022/04/06 08:41:00;;;;;;;118.38;88.72;;;11.90;99.90;;;;;;5033539;28;20030;-60
2022/04/06 08:43:26;;;;;;;36.22;26.55;;;12.10;99.90;;;;;;5037877;28;20029;-60
2022/04/06 08:45:54;;;;;;;81.95;48.75;;;12.20;99.90;;;;;;5036330;28;20037;-60
2022/04/06 08:48:20;;;;;;;320.85;205.75;;;12.30;99.90;;;;;;5036130;28;20025;-60
2022/04/06 08:50:48;;;;;;;48.22;32.50;;;12.50;99.90;;;;;;5035779;28;20044;-60
2022/04/06 08:53:15;;;;;;;162.27;106.50;;;12.70;99.90;;;;;;5015977;28;20038;-60
2022/04/06 08:55:41;;;;;;;11.65;7.25;;;12.60;99.90;;;;;;5049532;28;20065;-60
2022/04/06 08:58:07;;;;;;;252.65;151.40;;;12.70;99.90;;;;;;5035896;28;20069;-60
2022/04/06 09:00:33;;;;;;;10.55;6.57;;;12.70;99.90;;;;;;5035818;28;20022;-60
2022/04/06 09:02:59;;;;;;;90.78;82.18;;;12.50;99.90;;;;;;5035828;28;20033;-60
2022/04/06 09:05:27;;;;;;;9.00;7.00;;;12.80;99.90;;;;;;5033088;28;20025;-60
2022/04/06 09:07:53;;;;;;;19.48;17.25;;;13.40;99.90;;;;;;5035017;28;20025;-60
2022/04/06 09:10:33;;;;;;;28.13;25.50;;;13.40;99.90;;;;;;5036861;28;20417;-60
2022/04/06 09:13:13;;;;;;;9.50;7.68;;;13.50;99.90;;;;;;5033881;28;20103;-60
2022/04/06 09:15:39;;;;;;;19.05;17.13;;;13.40;99.90;;;;;;5032561;28;20041;-60
2022/04/06 09:18:05;;;;;;;23.10;20.75;;;13.50;99.90;;;;;;5035813;28;20025;-60
2022/04/06 09:20:31;;;;;;;10.80;7.95;;;13.70;99.90;;;;;;5033073;28;20409;-60
2022/04/06 09:23:04;;;;;;;5.90;2.75;;;13.50;99.90;;;;;;5033662;28;20120;-60
2022/04/06 09:25:38;;;;;;;8.02;4.47;;;13.50;99.90;;;;;;5035727;28;20504;-60
2022/04/06 09:28:16;;;;;;;9.07;8.18;;;13.40;99.90;;;;;;5034909;28;20117;-60
2022/04/06 09:30:44;;;;;;;6.88;4.65;;;13.40;99.90;;;;;;5035061;28;20037;-60
2022/04/06 09:33:18;;;;;;;9.65;5.75;;;13.60;99.90;;;;;;5035150;28;20075;-60
2022/04/06 09:35:45;;;;;;;8.20;6.25;;;13.80;99.90;;;;;;5034376;28;20053;-60
2022/04/06 09:38:22;;;;;;;9.30;5.78;;;13.80;99.90;;;;;;5031284;28;21722;-61
2022/04/06 09:40:51;;;;;;;10.35;8.32;;;14.00;99.90;;;;;;5044306;28;20040;-60
2022/04/06 09:43:46;;;;;;;13.38;11.98;;;14.20;99.90;;;;;;5036113;28;20502;-60
2022/04/06 09:49:16;;;;;;;8.77;5.88;;;14.40;99.90;;;;;;5033898;28;20032;-60
2022/04/06 09:51:47;;;;;;;27.67;24.88;;;14.60;99.90;;;;;;5033817;28;20038;-60
2022/04/06 09:54:13;;;;;;;19.40;17.38;;;14.60;99.90;;;;;;5033073;28;20033;-60
2022/04/06 09:56:40;;;;;;;45.63;41.13;;;14.50;99.90;;;;;;5033268;28;20051;-60
2022/04/06 09:59:07;;;;;;;33.08;29.77;;;14.60;99.90;;;;;;5031746;28;20029;-60
2022/04/06 10:01:36;;;;;;;10.15;6.20;;;14.30;99.90;;;;;;5036554;28;20142;-61
2022/04/06 10:04:06;;;;;;;8.45;6.15;;;13.80;99.90;;;;;;5034779;28;20036;-60
2022/04/06 10:06:34;;;;;;;13.65;11.60;;;13.90;99.90;;;;;;5034623;28;20048;-61
2022/04/06 10:09:02;;;;;;;53.75;48.22;;;14.00;99.90;;;;;;5034688;28;20436;-61
2022/04/06 10:11:28;;;;;;;41.33;34.05;;;13.70;99.90;;;;;;5031652;28;20486;-60
2022/04/06 10:13:55;;;;;;;10.45;6.95;;;13.30;99.90;;;;;;5033810;28;20025;-60
2022/04/06 10:16:22;;;;;;;6.65;2.55;;;13.30;99.90;;;;;;5035857;28;20041;-60
2022/04/06 10:18:50;;;;;;;8.30;7.55;;;13.30;99.90;;;;;;5034342;28;20048;-60
2022/04/06 10:21:36;;;;;;;7.95;6.45;;;13.40;99.90;;;;;;5034699;28;20021;-61
2022/04/06 10:24:04;;;;;;;14.57;13.18;;;13.70;99.90;;;;;;5034263;28;20037;-61
2022/04/06 10:26:34;;;;;;;11.40;10.27;;;13.80;99.90;;;;;;5031690;28;20029;-60
2022/04/06 10:29:00;;;;;;;35.15;31.98;;;14.00;99.90;;;;;;5032670;28;20025;-61
2022/04/06 10:31:30;;;;;;;11.93;10.15;;;13.90;99.90;;;;;;5034087;28;20486;-60
2022/04/06 10:34:17;;;;;;;17.60;15.82;;;13.90;99.90;;;;;;5031332;28;20049;-61
2022/04/06 10:36:44;;;;;;;12.18;11.00;;;14.30;99.90;;;;;;5033801;28;20080;-60
2022/04/06 10:39:15;;;;;;;9.52;7.32;;;14.40;99.90;;;;;;5033789;28;20048;-60
2022/04/06 10:42:24;;;;;;;7.50;6.75;;;14.40;99.90;;;;;;5033612;28;20024;-60
2022/04/06 10:44:50;;;;;;;2.60;2.20;;;14.60;99.90;;;;;;5025300;28;20069;-61
2022/04/06 10:47:17;;;;;;;2.00;1.20;;;15.30;99.90;;;;;;5030151;28;20065;-61
2022/04/06 10:50:08;;;;;;;4.35;1.60;;;15.40;99.90;;;;;;5043339;28;20032;-60
2022/04/06 10:52:34;;;;;;;4.28;1.88;;;15.20;99.90;;;;;;5034703;28;20465;-61
2022/04/06 10:55:08;;;;;;;2.83;1.70;;;14.90;99.90;;;;;;5033772;28;20030;-61
2022/04/06 10:58:09;;;;;;;4.30;2.03;;;14.80;99.90;;;;;;5034013;28;20045;-60
2022/04/06 11:00:39;;;;;;;5.80;2.25;;;15.20;99.90;;;;;;5008802;28;20030;-61
2022/04/06 11:03:16;;;;;;;4.78;3.30;;;14.60;99.90;;;;;;5008893;28;20045;-60
2022/04/06 11:05:48;;;;;;;5.20;3.33;;;14.50;99.90;;;;;;5008933;28;20508;-60
2022/04/06 11:11:45;;;;;;;7.63;3.10;;;14.30;99.90;;;;;;5009220;28;20118;-60
2022/04/06 11:14:12;;;;;;;4.80;2.60;;;14.50;99.90;;;;;;5009078;28;20030;-61
2022/04/06 11:16:46;;;;;;;11.07;9.95;;;14.70;99.90;;;;;;5009459;28;20121;-61
2022/04/06 11:19:15;;;;;;;5.03;2.83;;;15.70;99.90;;;;;;5008997;28;20419;-60
2022/04/06 11:22:01;;;;;;;6.07;1.73;;;15.90;99.90;;;;;;5008680;28;20034;-60
2022/04/06 11:24:27;;;;;;;3.80;1.75;;;16.50;99.90;;;;;;5008402;28;20032;-61
2022/04/06 11:26:54;;;;;;;7.05;6.10;;;16.30;99.90;;;;;;5009196;28;20461;-61
2022/04/06 11:29:25;;;;;;;3.08;1.35;;;15.80;99.90;;;;;;5008972;28;20026;-60
2022/04/06 11:32:06;;;;;;;3.58;1.30;;;15.60;99.90;;;;;;5009070;28;20034;-60
2022/04/06 11:34:36;;;;;;;4.07;1.30;;;15.60;99.90;;;;;;5010704;28;20038;-60
2022/04/06 11:37:06;;;;;;;5.53;1.30;;;15.30;99.90;;;;;;5032073;28;20111;-61
2022/04/06 11:39:32;;;;;;;2.35;1.13;;;15.30;99.90;;;;;;5035504;28;20030;-61
2022/04/06 11:42:02;;;;;;;2.63;1.20;;;15.30;99.90;;;;;;5037213;28;20032;-61
2022/04/06 11:44:28;;;;;;;3.85;1.40;;;16.00;99.90;;;;;;5034770;28;20033;-60
2022/04/06 11:46:55;;;;;;;2.17;1.10;;;16.40;99.90;;;;;;5036382;28;20028;-60
2022/04/06 11:49:26;;;;;;;2.60;1.10;;;16.40;99.90;;;;;;5036857;28;20021;-60
2022/04/06 11:51:55;;;;;;;1.15;0.90;;;16.30;99.90;;;;;;5035578;28;20116;-60
2022/04/06 11:54:22;;;;;;;1.83;0.90;;;16.00;99.90;;;;;;5037058;28;20036;-60
2022/04/06 11:56:52;;;;;;;2.75;0.80;;;16.30;99.90;;;;;;5036909;28;20461;-60
2022/04/06 11:59:19;;;;;;;1.75;0.68;;;16.10;99.90;;;;;;5017773;28;20029;-60
2022/04/06 12:01:46;;;;;;;1.75;0.80;;;15.70;99.90;;;;;;5038433;28;20160;-61
2022/04/06 12:04:16;;;;;;;1.83;0.70;;;15.70;99.90;;;;;;5037310;28;20021;-61
2022/04/06 12:06:42;;;;;;;1.65;0.80;;;16.00;99.90;;;;;;5036526;28;20037;-60
2022/04/06 12:09:08;;;;;;;1.35;0.90;;;15.80;99.90;;;;;;5037112;28;20486;-60
2022/04/06 12:11:36;;;;;;;1.63;0.90;;;16.00;99.90;;;;;;5034829;28;20032;-60
2022/04/06 12:14:02;;;;;;;2.45;1.00;;;16.20;99.90;;;;;;5033982;28;20087;-60
2022/04/06 12:16:29;;;;;;;3.88;1.00;;;16.40;99.90;;;;;;5038429;28;20516;-61
2022/04/06 12:18:54;;;;;;;1.05;0.80;;;16.40;99.90;;;;;;5036608;28;20378;-60
2022/04/06 12:21:25;;;;;;;2.10;1.00;;;16.50;99.90;;;;;;5036035;28;20037;-60
2022/04/06 12:23:52;;;;;;;2.65;1.10;;;16.60;99.90;;;;;;5036828;28;20086;-61
2022/04/06 12:26:18;;;;;;;3.38;1.13;;;16.10;99.90;;;;;;5030920;28;20033;-60
2022/04/06 12:28:48;;;;;;;2.85;1.13;;;16.20;99.90;;;;;;5038204;28;20036;-61
2022/04/06 12:31:14;;;;;;;2.42;1.00;;;16.00;99.90;;;;;;5035366;28;20026;-61
2022/04/06 12:33:49;;;;;;;1.73;0.90;;;15.70;99.90;;;;;;5036331;28;20074;-61
2022/04/06 12:36:26;;;;;;;2.20;1.10;;;15.90;99.90;;;;;;5035715;28;20083;-61
2022/04/06 12:39:15;;;;;;;3.15;1.25;;;15.50;99.90;;;;;;5036187;28;20067;-60
2022/04/06 12:41:58;;;;;;;3.58;1.25;;;15.10;99.90;;;;;;5035159;28;20024;-60
2022/04/06 12:44:35;;;;;;;2.55;0.95;;;14.90;99.90;;;;;;5018848;28;20044;-60
2022/04/06 12:47:02;;;;;;;4.78;1.20;;;14.80;99.90;;;;;;5033806;28;20033;-60
2022/04/06 12:49:36;;;;;;;2.30;0.90;;;15.00;99.90;;;;;;5035309;28;20030;-60
2022/04/06 12:52:02;;;;;;;;;;;15.30;99.90;;;;;;5036654;28;20490;-60
2022/04/06 12:54:31;;;;;;;2.55;1.10;;;15.90;99.90;;;;;;5035392;28;20003;-60
2022/04/06 12:57:06;;;;;;;3.03;0.90;;;15.80;99.90;;;;;;5036308;28;20028;-61